Latest Weather Observations for Tennant Creek

IDD60801

Issued at 10:31 pm CST Monday 6 February 2023 (issued every 10 minutes, with the page automatically refreshed every 10 minutes)

About weather observations | Map of weather stations | Latest weather observations for NT | Other Formats
Station Details ID: 015135 Name: TENNANT CREEK AIRPORT Lat: -19.64 Lon: 134.18 Height: 375.7 m
Data from the previous 72 hours. | See also: Recent months at Tennant Creek
Date/Time
CST
Temp
°C
App
Temp
°C
Dew
Point
°C
Rel
Hum
%
Delta-T
°C
Wind Press
QNH
hPa
Press
MSL
hPa
Rain since
9am
mm
Dir  Spd
km/h
Gust
km/h
Spd
kts
Gust
kts
06/10:30pm 29.0 28.6 21.0 62 5.4 SE 24 33 13 18 1009.6 1006.6 0.0
06/10:00pm 30.0 28.6 19.7 54 6.8 SE 26 35 14 19 1009.3 1006.3 0.0
06/09:52pm 30.7 29.9 18.1 47 8.2 SE 19 35 10 19 1009.3 1006.3 0.0
06/09:30pm 31.0 31.7 17.0 43 9.0 ESE 9 13 5 7 1008.8 1005.9 0.0
06/09:00pm 30.9 30.8 16.9 43 9.0 ESE 13 15 7 8 1008.5 1005.6 0.0
06/08:30pm 30.8 31.1 17.1 43 8.8 ESE 11 13 6 7 1008.3 1005.3 0.0
06/08:00pm 31.3 31.0 16.5 41 9.4 ESE 13 15 7 8 1008.2 1005.2 0.0
06/07:30pm 32.0 31.9 15.9 38 10.2 ESE 11 15 6 8 1007.9 1004.9 0.0
06/07:00pm 32.8 31.9 14.9 34 11.2 SE 13 17 7 9 1007.7 1004.7 0.0
06/06:30pm 33.4 31.6 14.5 32 11.8 SE 17 22 9 12 1007.4 1004.4 0.0
06/06:00pm 34.4 32.9 14.3 30 12.6 SE 15 20 8 11 1007.3 1004.3 0.0
06/05:30pm 34.5 32.3 13.3 27 13.1 SE 17 24 9 13 1007.2 1004.2 0.0
06/05:00pm 34.6 32.1 13.4 27 13.1 ESE 19 28 10 15 1007.2 1004.2 0.0
06/04:30pm 34.7 32.6 13.5 28 13.1 SE 17 26 9 14 1007.2 1004.2 0.0
06/04:00pm 34.7 32.0 13.5 28 13.1 SSE 20 30 11 16 1007.4 1004.4 0.0
06/03:30pm 35.3 33.3 14.0 27 13.3 SE 17 30 9 16 1007.6 1004.6 0.0
06/03:00pm 35.0 31.8 13.2 27 13.4 SE 22 32 12 17 1008.0 1005.0 0.0
06/02:30pm 34.8 32.5 11.9 25 13.8 SE 15 26 8 14 1008.3 1005.3 0.0
06/02:00pm 34.6 31.3 11.7 25 13.8 SE 20 32 11 17 1008.6 1005.7 0.0
06/01:30pm 34.5 30.7 9.7 22 14.5 SE 20 28 11 15 1009.0 1006.1 0.0
06/01:00pm 33.9 30.5 9.2 22 14.3 SE 17 26 9 14 1009.4 1006.4 0.0
06/12:30pm 33.7 29.1 8.3 21 14.5 SE 22 30 12 16 1009.8 1006.8 0.0
06/12:00pm 33.2 28.5 7.9 21 14.3 SE 22 30 12 16 1010.1 1007.1 0.0
06/11:30am 33.2 27.6 7.2 20 14.5 SE 26 33 14 18 1010.4 1007.4 0.0
06/11:00am 32.5 27.0 7.4 21 14.0 SE 26 35 14 19 1010.7 1007.7 0.0
06/10:30am 31.6 26.4 7.3 22 13.5 ESE 24 32 13 17 1010.9 1007.9 0.0
06/10:00am 30.9 25.9 8.0 24 12.8 SE 24 32 13 17 1011.2 1008.3 0.0
06/09:30am 29.8 24.3 7.7 25 12.2 SE 26 32 14 17 1011.3 1008.4 0.0
06/09:00am 28.7 23.8 6.7 25 11.9 SE 22 33 12 18 1011.4 1008.5 0.0
06/08:30am 27.9 23.5 7.2 27 11.2 SE 20 28 11 15 1011.3 1008.4 0.0
06/08:00am 26.2 21.9 6.8 29 10.4 SE 19 26 10 14 1011.3 1008.4 0.0
06/07:30am 24.6 20.3 6.8 32 9.4 SE 19 26 10 14 1011.2 1008.3 0.0
06/07:00am 23.4 18.8 6.7 34 8.8 SE 20 26 11 14 1010.9 1007.9 0.0
06/06:30am 23.0 18.4 6.3 34 8.7 SE 20 28 11 15 1010.6 1007.6 0.0
06/06:00am 23.2 18.6 6.5 34 8.7 SE 20 28 11 15 1010.1 1007.1 0.0
06/05:30am 23.0 18.4 6.7 35 8.5 SE 20 26 11 14 1009.7 1006.7 0.0
06/05:00am 23.2 19.6 6.9 35 8.6 SE 15 20 8 11 1009.4 1006.4 0.0
06/04:30am 23.0 19.6 7.5 37 8.2 SE 15 19 8 10 1009.4 1006.4 0.0
06/04:00am 23.3 20.5 8.6 39 8.0 SE 13 17 7 9 1009.3 1006.3 0.0
06/03:30am 22.9 20.7 9.3 42 7.5 SE 11 15 6 8 1009.5 1006.5 0.0
06/03:00am 22.8 20.7 9.9 44 7.2 ESE 11 13 6 7 1009.5 1006.5 0.0
06/02:30am 23.3 21.2 9.7 42 7.5 ESE 11 15 6 8 1009.4 1006.4 0.0
06/02:00am 23.9 21.5 9.9 41 7.8 SE 13 17 7 9 1009.7 1006.7 0.0
06/01:30am 24.5 21.6 9.6 39 8.3 SE 15 19 8 10 1009.8 1006.8 0.0
06/01:00am 25.2 22.2 9.1 36 8.9 SE 15 20 8 11 1010.1 1007.1 0.0
06/12:30am 25.1 22.2 9.8 38 8.6 SE 15 19 8 10 1010.4 1007.4 0.0
06/12:00am 25.6 23.0 9.4 36 9.0 SE 13 17 7 9 1010.6 1007.6 0.0
 
Date/Time
CST
Temp
°C
App
Temp
°C
Dew
Point
°C
Rel
Hum
%
Delta-T
°C
Wind Press
QNH
hPa
Press
MSL
hPa
Rain since
9am
mm
Dir  Spd
km/h
Gust
km/h
Spd
kts
Gust
kts
05/11:30pm 25.4 23.0 10.1 38 8.6 SE 13 15 7 8 1010.8 1007.8 0.0
05/11:00pm 25.5 23.5 10.1 38 8.7 SE 11 13 6 7 1010.8 1007.8 0.0
05/10:30pm 26.0 24.0 10.2 37 8.9 SE 11 15 6 8 1010.8 1007.8 0.0
05/10:00pm 26.3 24.0 10.5 37 9.0 SE 13 19 7 10 1010.5 1007.5 0.0
05/09:30pm 26.2 24.4 10.8 38 8.8 SSE 11 13 6 7 1010.3 1007.3 0.0
05/09:00pm 27.0 24.6 10.2 35 9.6 SE 13 19 7 10 1010.1 1007.1 0.0
05/08:30pm 27.3 25.3 10.1 34 9.8 SSE 11 15 6 8 1009.9 1006.9 0.0
05/08:00pm 27.6 25.3 10.3 34 9.9 SSE 13 15 7 8 1009.5 1006.5 0.0
05/07:30pm 28.5 26.5 10.2 32 10.5 SSE 11 15 6 8 1009.1 1006.2 0.0
05/07:00pm 29.8 26.8 9.3 28 11.6 SSE 15 19 8 10 1008.8 1005.9 0.0
05/06:30pm 30.8 27.2 8.5 25 12.6 SE 17 22 9 12 1008.5 1005.6 0.0
05/06:00pm 31.4 27.1 7.8 23 13.2 SE 20 26 11 14 1008.2 1005.2 0.0
05/05:30pm 31.7 28.3 9.3 25 12.9 SE 17 26 9 14 1008.0 1005.0 0.0
05/05:00pm 32.2 28.0 8.4 23 13.5 ESE 20 28 11 15 1008.0 1005.0 0.0
05/04:30pm 32.2 28.5 7.8 22 13.7 ESE 17 28 9 15 1008.1 1005.1 0.0
05/04:00pm 32.1 28.7 9.0 24 13.2 E 17 24 9 13 1008.4 1005.4 0.0
05/03:30pm 32.7 30.1 10.7 26 13.0 ESE 15 24 8 13 1008.6 1005.7 0.0
05/03:00pm 31.7 28.6 8.7 24 13.1 E 15 22 8 12 1008.9 1006.0 0.0
05/02:30pm 31.4 28.5 9.6 26 12.5 ESE 15 26 8 14 1009.3 1006.3 0.0
05/02:00pm 31.0 28.0 9.3 26 12.4 E 15 24 8 13 1009.7 1006.7 0.0
05/01:30pm 30.9 27.4 7.4 23 13.0 ESE 15 26 8 14 1010.0 1007.0 0.0
05/01:00pm 30.8 27.7 10.2 28 11.9 SE 17 26 9 14 1010.3 1007.3 0.0
05/12:30pm 30.1 26.1 9.1 27 11.9 ESE 20 30 11 16 1010.5 1007.5 0.0
05/12:00pm 29.5 25.3 7.4 25 12.2 SE 19 30 10 16 1010.8 1007.8 0.0
05/11:30am 29.0 24.0 8.1 27 11.6 SE 24 32 13 17 1011.2 1008.3 0.0
05/11:00am 28.8 23.4 7.9 27 11.5 SE 26 33 14 18 1011.5 1008.6 0.0
05/10:30am 28.0 22.9 7.8 28 11.1 ESE 24 35 13 19 1011.8 1008.9 0.0
05/10:00am 27.0 21.9 7.5 29 10.6 SE 24 32 13 17 1011.9 1009.0 0.0
05/09:30am 26.2 20.3 7.7 31 10.0 SE 28 37 15 20 1011.9 1009.0 0.0
05/09:00am 25.4 20.1 8.4 34 9.3 SE 26 33 14 18 1012.1 1009.1 0.0
05/08:30am 24.0 19.5 8.4 37 8.5 SE 22 28 12 15 1011.9 1009.0 0.0
05/08:00am 22.7 17.9 8.8 41 7.5 SE 24 32 13 17 1011.6 1008.7 0.0
05/07:30am 21.6 17.1 8.5 43 7.0 SE 22 33 12 18 1011.6 1008.7 0.0
05/07:00am 21.0 16.1 8.3 44 6.8 SE 24 33 13 18 1011.4 1008.5 0.0
05/06:30am 20.3 16.2 8.6 47 6.2 SE 20 30 11 16 1011.0 1008.1 0.0
05/06:00am 20.3 15.9 8.9 48 6.1 SE 22 30 12 16 1010.8 1007.8 0.0
05/05:30am 20.3 16.3 9.2 49 6.0 SE 20 28 11 15 1010.6 1007.6 0.0
05/05:00am 20.2 16.6 10.0 52 5.6 SE 19 24 10 13 1010.3 1007.3 0.0
05/04:30am 20.2 17.1 10.3 53 5.5 SE 17 20 9 11 1010.1 1007.1 0.0
05/04:00am 20.2 17.7 11.1 56 5.1 SE 15 19 8 10 1010.0 1007.0 0.0
05/03:30am 20.3 17.9 11.5 57 5.0 SE 15 19 8 10 1009.9 1006.9 0.0
05/03:00am 20.6 17.9 11.8 57 5.0 SE 17 20 9 11 1009.7 1006.7 0.0
05/02:30am 20.6 18.8 12.1 58 4.8 SE 13 19 7 10 1009.9 1006.9 0.0
05/02:00am 20.9 18.8 12.3 58 4.9 SE 15 19 8 10 1010.1 1007.1 0.0
05/01:30am 21.3 18.8 12.2 56 5.2 SE 17 20 9 11 1010.2 1007.2 0.0
05/01:00am 21.8 19.2 12.1 54 5.6 SE 17 19 9 10 1010.3 1007.3 0.0
05/12:30am 21.9 19.5 12.5 55 5.4 SE 17 20 9 11 1010.6 1007.6 0.0
05/12:00am 22.2 19.9 13.0 56 5.4 SE 17 20 9 11 1010.9 1007.9 0.0
 
Date/Time
CST
Temp
°C
App
Temp
°C
Dew
Point
°C
Rel
Hum
%
Delta-T
°C
Wind Press
QNH
hPa
Press
MSL
hPa
Rain since
9am
mm
Dir  Spd
km/h
Gust
km/h
Spd
kts
Gust
kts
04/11:30pm 22.5 20.2 13.0 55 5.5 ESE 17 20 9 11 1011.1 1008.2 0.0
04/11:00pm 23.1 21.2 13.0 53 5.9 SE 15 17 8 9 1011.2 1008.3 0.0
04/10:30pm 23.2 22.2 13.4 54 5.8 SE 11 15 6 8 1011.1 1008.2 0.0
04/10:00pm 23.9 22.8 13.2 51 6.3 SE 11 13 6 7 1010.9 1007.9 0.0
04/09:30pm 24.5 23.3 12.8 48 6.9 SE 11 15 6 8 1010.6 1007.6 0.0
04/09:00pm 25.2 23.5 12.4 45 7.5 SE 13 17 7 9 1010.3 1007.3 0.0
04/08:30pm 25.8 24.8 12.3 43 7.9 ESE 9 13 5 7 1009.8 1006.8 0.0
04/08:00pm 26.1 24.4 12.5 42 8.0 ESE 13 15 7 8 1009.5 1006.5 0.0
04/07:30pm 26.9 25.2 12.5 40 8.5 ESE 13 15 7 8 1009.0 1006.1 0.0
04/07:00pm 28.1 25.8 11.6 36 9.6 ESE 15 19 8 10 1008.6 1005.7 0.0
04/06:30pm 29.0 26.1 11.1 33 10.4 ESE 17 24 9 13 1008.2 1005.2 0.0
04/06:00pm 29.5 26.4 11.5 32 10.6 SE 19 26 10 14 1007.8 1004.8 0.0
04/05:30pm 29.5 25.5 10.6 31 11.0 SE 22 33 12 18 1007.5 1004.5 0.0
04/05:00pm 30.0 26.7 11.0 31 11.1 SE 19 35 10 19 1007.2 1004.2 0.0
04/04:30pm 30.2 26.4 11.2 31 11.2 SE 22 32 12 17 1007.1 1004.1 0.0
04/04:00pm 30.1 27.0 11.6 32 10.9 SSE 19 30 10 16 1007.3 1004.3 0.0
04/03:30pm 30.3 27.4 12.2 32 10.8 SE 19 30 10 16 1007.6 1004.6 0.0
04/03:00pm 30.3 27.1 11.8 32 11.0 SE 20 32 11 17 1007.9 1004.9 0.0
04/02:30pm 30.2 27.9 13.0 34 10.4 SE 17 28 9 15 1008.2 1005.2 0.0
04/02:00pm 29.2 25.9 11.7 34 10.3 ESE 20 35 11 19 1008.5 1005.6 0.0
04/01:30pm 29.3 25.6 11.4 33 10.5 ESE 22 32 12 17 1008.8 1005.9 0.0
04/01:00pm 29.4 25.9 12.3 34 10.2 ESE 22 30 12 16 1009.4 1006.4 0.0
04/12:30pm 28.1 24.4 11.6 36 9.7 ESE 22 33 12 18 1009.7 1006.7 0.0
04/12:00pm 27.7 23.2 11.3 36 9.5 ESE 26 37 14 20 1010.0 1007.0 0.0
04/11:30am 27.6 23.4 11.2 36 9.5 ESE 24 37 13 20 1010.3 1007.3 0.0
04/11:00am 26.8 21.8 10.9 37 9.1 ESE 28 37 15 20 1010.5 1007.5 0.0
04/10:30am 26.5 21.1 11.0 38 8.9 SE 30 39 16 21 1010.4 1007.4 0.0
04/10:00am 26.0 19.8 10.2 37 8.9 ESE 33 43 18 23 1010.6 1007.6 0.0
04/09:30am 25.3 19.3 10.0 38 8.6 ESE 32 39 17 21 1010.6 1007.6 0.0
04/09:00am 24.1 18.0 9.7 40 8.0 ESE 32 43 17 23 1010.6 1007.6 0.0
04/08:30am 23.7 18.4 11.1 45 7.2 ESE 30 39 16 21 1010.5 1007.5 0.0
04/08:00am 22.8 17.0 10.9 47 6.7 ESE 32 41 17 22 1010.3 1007.3 0.0
04/07:30am 21.8 16.9 12.4 55 5.4 ESE 30 37 16 20 1010.2 1007.2 0.0
04/07:00am 21.1 17.4 12.8 59 4.8 ESE 24 32 13 17 1009.8 1006.8 0.0
04/06:30am 20.6 16.6 13.1 62 4.4 ESE 26 35 14 19 1009.4 1006.4 0.0
04/06:00am 21.0 16.2 12.9 60 4.7 ESE 30 39 16 21 1008.6 1005.7 0.0
04/05:30am 21.2 16.9 13.1 60 4.7 ESE 28 33 15 18 1008.1 1005.1 0.0
04/05:00am 21.6 18.3 12.7 57 5.1 ESE 22 32 12 17 1007.8 1004.8 0.0
04/04:30am 22.2 19.4 12.7 55 5.5 ESE 19 24 10 13 1007.4 1004.4 0.0
04/04:00am 21.5 19.6 12.9 58 5.0 ESE 15 19 8 10 1007.2 1004.2 0.0
04/03:30am 22.4 19.9 12.4 53 5.8 ESE 17 22 9 12 1007.2 1004.2 0.0
04/03:00am 22.5 20.8 12.4 52 5.8 ESE 13 19 7 10 1007.2 1004.2 0.0
04/02:30am 22.1 20.1 12.6 55 5.5 ESE 15 19 8 10 1007.0 1004.0 0.0
04/02:00am 22.5 20.1 12.7 54 5.7 ESE 17 22 9 12 1007.0 1004.0 0.0
04/01:30am 22.8 21.3 13.0 54 5.7 ESE 13 17 7 9 1007.1 1004.1 0.0
04/01:00am 23.5 21.5 12.8 51 6.3 ESE 15 20 8 11 1007.3 1004.3 0.0
04/12:30am 23.5 22.0 13.1 52 6.1 ESE 13 19 7 10 1007.5 1004.5 0.0
04/12:00am 24.1 22.7 13.3 51 6.4 ESE 13 17 7 9 1007.7 1004.7 0.0
 
Date/Time
CST
Temp
°C
App
Temp
°C
Dew
Point
°C
Rel
Hum
%
Delta-T
°C
Wind Press
QNH
hPa
Press
MSL
hPa
Rain since
9am
mm
Dir  Spd
km/h
Gust
km/h
Spd
kts
Gust
kts
03/11:30pm 24.9 23.0 13.1 47 7.0 ESE 15 19 8 10 1007.8 1004.8 0.0
03/11:00pm 25.2 23.8 13.4 48 7.0 ESE 13 17 7 9 1007.9 1004.9 0.0

Other formats

Comma delimited format used in spreadsheet applications
http://www.bom.gov.au/fwo/IDD60801/IDD60801.94238.axf

JavaScript Object Notation format (JSON) in row-major order
http://www.bom.gov.au/fwo/IDD60801/IDD60801.94238.json

Data quality

Most of these data are generated automatically and are frequently updated. Quality checks on data are not normally performed. It is possible for incorrect values to appear. Refer to information at About Latest Weather Observations and please check the disclaimer before using these data.